Time;durP1;ratioP1;P1;durP2;ratioP2;P2;SDS_P1;SDS_P2;PMS_P1;PMS_P2;Temp;Humidity;BMP_temperature;BMP_pressure;BME280_temperature;BME280_humidity;BME280_pressure;Samples;Min_cycle;Max_cycle;Signal;HPM_P1;HPM_P2
2021/03/17 00:02:22;;;;;;;1.67;1.25;;;5.80;99.90;;;;;;5075953;28;20033;-46
2021/03/17 00:04:49;;;;;;;3.08;1.30;;;5.70;99.90;;;;;;5040283;28;20059;-47
2021/03/17 00:07:15;;;;;;;2.60;1.40;;;5.80;99.90;;;;;;5076093;28;20031;-46
2021/03/17 00:09:41;;;;;;;2.22;1.30;;;5.70;99.90;;;;;;5037359;28;20048;-47
2021/03/17 00:12:07;;;;;;;1.80;1.20;;;5.80;99.90;;;;;;5059054;28;20103;-46
2021/03/17 00:14:33;;;;;;;2.08;1.60;;;5.80;99.90;;;;;;5039088;28;20033;-46
2021/03/17 00:16:58;;;;;;;0.80;0.80;;;5.80;99.90;;;;;;5072396;28;20028;-47
2021/03/17 00:19:24;;;;;;;1.90;1.77;;;5.80;99.90;;;;;;5073662;28;20051;-46
2021/03/17 00:21:50;;;;;;;1.88;1.30;;;5.80;99.90;;;;;;5056850;28;20438;-47
2021/03/17 00:24:16;;;;;;;1.00;0.82;;;5.80;99.90;;;;;;5073498;28;20037;-47
2021/03/17 00:26:42;;;;;;;2.20;0.93;;;5.80;99.90;;;;;;5067795;28;20045;-46
2021/03/17 00:29:08;;;;;;;0.75;0.60;;;5.90;99.90;;;;;;5065619;28;20052;-47
2021/03/17 00:31:33;;;;;;;2.00;1.48;;;5.80;99.90;;;;;;5053523;28;20021;-46
2021/03/17 00:33:59;;;;;;;1.58;1.10;;;5.90;99.90;;;;;;5019995;28;20040;-46
2021/03/17 00:36:25;;;;;;;0.93;0.63;;;5.90;99.90;;;;;;5003636;28;20127;-46
2021/03/17 00:38:50;;;;;;;1.40;1.02;;;5.80;99.90;;;;;;5053023;28;20040;-47
2021/03/17 00:41:16;;;;;;;1.17;1.02;;;5.80;99.90;;;;;;5069380;28;20072;-46
2021/03/17 00:43:42;;;;;;;1.38;1.00;;;5.80;99.90;;;;;;5075272;28;20035;-47
2021/03/17 00:46:08;;;;;;;1.48;1.10;;;5.80;99.90;;;;;;5075337;28;20493;-47
2021/03/17 00:48:33;;;;;;;3.50;1.20;;;5.70;99.90;;;;;;5075584;28;20082;-47
2021/03/17 00:50:59;;;;;;;1.52;1.23;;;5.70;99.90;;;;;;5074838;28;20045;-47
2021/03/17 00:53:25;;;;;;;2.08;1.17;;;5.60;99.90;;;;;;5074634;28;20052;-47
2021/03/17 00:55:50;;;;;;;2.63;1.50;;;5.60;99.90;;;;;;5073072;28;20039;-47
2021/03/17 00:58:16;;;;;;;1.25;1.05;;;5.70;99.90;;;;;;5056422;28;20040;-47
2021/03/17 01:00:42;;;;;;;1.25;1.15;;;5.60;99.90;;;;;;5039482;28;20063;-47
2021/03/17 01:03:09;;;;;;;2.00;1.23;;;5.70;99.90;;;;;;5056685;28;20029;-46
2021/03/17 01:05:35;;;;;;;1.48;1.33;;;5.60;99.90;;;;;;5074440;28;20099;-46
2021/03/17 01:08:01;;;;;;;1.23;1.10;;;5.60;99.90;;;;;;5077597;28;20093;-47
2021/03/17 01:10:42;;;;;;;1.55;1.40;;;5.60;99.90;;;;;;5065357;28;20044;-47
2021/03/17 01:13:08;;;;;;;2.85;1.48;;;5.50;99.90;;;;;;5084066;28;20028;-47
2021/03/17 01:15:34;;;;;;;1.58;1.20;;;5.60;99.90;;;;;;5094933;28;20353;-47
2021/03/17 01:18:00;;;;;;;1.30;1.08;;;5.60;99.90;;;;;;5074646;28;20464;-47
2021/03/17 01:20:28;;;;;;;1.52;1.05;;;5.60;99.90;;;;;;5081392;28;20041;-47
2021/03/17 01:22:55;;;;;;;2.10;1.10;;;5.60;99.90;;;;;;5076388;28;20096;-47
2021/03/17 01:25:37;;;;;;;3.72;1.13;;;5.50;99.90;;;;;;5091237;28;20111;-47
2021/03/17 01:28:05;;;;;;;1.70;1.30;;;5.50;99.90;;;;;;5080043;28;20119;-46
2021/03/17 01:30:34;;;;;;;1.30;1.10;;;5.60;99.90;;;;;;5057914;28;20502;-47
2021/03/17 01:33:01;;;;;;;1.30;1.17;;;5.60;99.90;;;;;;5083082;28;20045;-46
2021/03/17 01:35:27;;;;;;;1.73;1.30;;;5.60;99.90;;;;;;5072101;28;20029;-46
2021/03/17 01:37:53;;;;;;;1.92;1.38;;;5.60;99.90;;;;;;5072177;28;20120;-46
2021/03/17 01:40:25;;;;;;;1.92;1.30;;;5.60;99.90;;;;;;5040863;28;20064;-47
2021/03/17 01:42:52;;;;;;;1.60;1.20;;;5.60;99.90;;;;;;5092375;28;20043;-46
2021/03/17 01:45:18;;;;;;;1.90;1.30;;;5.60;99.90;;;;;;5092195;28;20433;-46
2021/03/17 01:47:46;;;;;;;2.10;1.30;;;5.60;99.90;;;;;;5091887;28;20505;-46
2021/03/17 01:50:31;;;;;;;1.23;0.90;;;5.70;99.90;;;;;;5092164;28;20032;-46
2021/03/17 01:53:04;;;;;;;1.40;1.30;;;5.60;99.90;;;;;;5073128;28;20060;-47
2021/03/17 01:55:30;;;;;;;1.45;1.08;;;5.50;99.90;;;;;;5072131;28;20033;-46
2021/03/17 01:57:56;;;;;;;1.73;1.20;;;5.50;99.90;;;;;;5072154;28;20048;-46
2021/03/17 02:00:22;;;;;;;2.55;1.55;;;5.50;99.90;;;;;;5073893;28;20400;-46
2021/03/17 02:02:51;;;;;;;1.80;1.20;;;5.60;99.90;;;;;;5054962;28;20047;-46
2021/03/17 02:05:21;;;;;;;2.38;1.40;;;5.60;99.90;;;;;;5073951;28;20028;-47
2021/03/17 02:07:47;;;;;;;1.17;0.98;;;5.50;99.90;;;;;;5073898;28;20430;-47
2021/03/17 02:10:15;;;;;;;2.50;1.67;;;5.40;99.90;;;;;;5074376;28;20036;-46
2021/03/17 02:12:50;;;;;;;2.25;1.40;;;5.50;99.90;;;;;;5078876;28;20100;-47
2021/03/17 02:15:37;;;;;;;1.52;1.40;;;5.50;99.90;;;;;;5091987;28;20030;-47
2021/03/17 02:18:28;;;;;;;1.70;1.60;;;5.40;99.90;;;;;;5071866;28;20107;-47
2021/03/17 02:21:15;;;;;;;0.75;0.68;;;5.50;99.90;;;;;;5062782;28;20043;-46
2021/03/17 02:24:13;;;;;;;2.17;1.52;;;5.40;99.90;;;;;;5109222;28;20115;-47
2021/03/17 02:27:07;;;;;;;1.17;0.95;;;5.50;99.90;;;;;;5081781;28;20086;-47
2021/03/17 02:29:53;;;;;;;1.73;1.30;;;5.40;99.90;;;;;;5073679;28;20059;-47
2021/03/17 02:32:56;;;;;;;1.75;1.20;;;5.40;99.90;;;;;;5073600;28;20533;-47
2021/03/17 02:35:25;;;;;;;1.85;1.63;;;5.40;99.90;;;;;;5073692;28;20028;-46
2021/03/17 02:37:54;;;;;;;1.52;1.30;;;5.30;99.90;;;;;;5073222;28;20028;-46
2021/03/17 02:40:34;;;;;;;3.38;1.23;;;5.30;99.90;;;;;;5076863;28;20020;-47
2021/03/17 02:43:17;;;;;;;1.27;0.93;;;5.30;99.90;;;;;;5077513;28;20392;-47
2021/03/17 02:45:51;;;;;;;2.05;1.42;;;5.20;99.90;;;;;;5058617;28;20599;-46
2021/03/17 02:48:29;;;;;;;3.42;1.65;;;5.20;99.90;;;;;;5077054;28;20036;-46
2021/03/17 02:51:00;;;;;;;1.45;1.35;;;5.20;99.90;;;;;;5077513;28;20113;-46
2021/03/17 02:53:27;;;;;;;2.78;2.13;;;5.20;99.90;;;;;;5077229;28;20036;-47
2021/03/17 02:56:06;;;;;;;1.45;1.20;;;5.20;99.90;;;;;;5077436;28;20124;-46
2021/03/17 02:58:34;;;;;;;1.75;1.40;;;5.20;99.90;;;;;;5041700;28;20050;-46
2021/03/17 03:01:01;;;;;;;2.83;1.73;;;5.20;99.90;;;;;;5075471;28;20122;-46
2021/03/17 03:03:30;;;;;;;2.22;1.23;;;5.10;99.90;;;;;;5081737;28;20048;-47
2021/03/17 03:05:57;;;;;;;1.35;0.90;;;5.20;99.90;;;;;;5088209;28;20044;-47
2021/03/17 03:08:26;;;;;;;2.85;1.80;;;5.10;99.90;;;;;;5079828;28;20060;-47
2021/03/17 03:10:53;;;;;;;1.73;1.40;;;5.10;99.90;;;;;;5090746;28;20036;-47
2021/03/17 03:13:19;;;;;;;0.90;0.85;;;5.20;99.90;;;;;;5094843;28;20444;-48
2021/03/17 03:15:46;;;;;;;2.05;1.27;;;5.10;99.90;;;;;;5078952;28;20067;-46
2021/03/17 03:18:13;;;;;;;1.25;1.15;;;5.10;99.90;;;;;;5074737;28;20045;-46
2021/03/17 03:20:40;;;;;;;1.45;1.10;;;5.10;99.90;;;;;;5093353;28;20039;-46
2021/03/17 03:23:07;;;;;;;1.73;1.15;;;5.10;99.90;;;;;;5095326;28;20028;-46
2021/03/17 03:25:34;;;;;;;1.85;1.27;;;5.10;99.90;;;;;;5094980;28;20045;-46
2021/03/17 03:28:11;;;;;;;2.40;1.35;;;5.20;99.90;;;;;;5094457;28;20035;-47
2021/03/17 03:30:48;;;;;;;0.65;0.55;;;5.20;99.90;;;;;;5096793;28;20040;-47
2021/03/17 03:33:14;;;;;;;1.60;1.25;;;5.00;99.90;;;;;;5094032;28;20025;-47
2021/03/17 03:35:41;;;;;;;1.00;0.75;;;5.10;99.90;;;;;;5076596;28;20437;-46
2021/03/17 03:38:09;;;;;;;1.38;1.17;;;5.10;99.90;;;;;;5076522;28;20033;-46
2021/03/17 03:40:35;;;;;;;5.65;1.60;;;5.10;99.90;;;;;;5074998;28;20047;-47
2021/03/17 03:43:01;;;;;;;2.35;1.13;;;5.10;99.90;;;;;;5075964;28;20029;-46
2021/03/17 03:45:27;;;;;;;1.33;0.95;;;5.10;99.90;;;;;;5076605;28;20039;-46
2021/03/17 03:47:53;;;;;;;2.67;1.05;;;5.10;99.90;;;;;;5076348;28;20529;-46
2021/03/17 03:50:21;;;;;;;2.20;1.30;;;5.10;99.90;;;;;;5075174;28;20024;-45
2021/03/17 03:53:13;;;;;;;1.67;1.02;;;5.10;99.90;;;;;;5075798;28;20087;-46
2021/03/17 03:56:04;;;;;;;1.50;1.23;;;5.20;99.90;;;;;;5076196;28;20468;-47
2021/03/17 03:58:34;;;;;;;0.85;0.85;;;5.10;99.90;;;;;;5075646;28;20028;-46
2021/03/17 04:01:12;;;;;;;1.85;1.00;;;5.10;99.90;;;;;;5076096;28;20117;-46
2021/03/17 04:03:45;;;;;;;0.68;0.68;;;5.00;99.90;;;;;;5076128;28;20029;-46
2021/03/17 04:06:13;;;;;;;1.65;1.40;;;5.00;99.90;;;;;;5076107;28;20387;-47
2021/03/17 04:08:45;;;;;;;1.35;1.15;;;4.90;99.90;;;;;;5075648;28;20039;-46
2021/03/17 04:11:13;;;;;;;3.35;0.95;;;5.00;99.90;;;;;;5076241;28;20034;-47
2021/03/17 04:13:40;;;;;;;2.78;0.88;;;4.80;99.90;;;;;;5071446;28;20039;-47
2021/03/17 04:16:07;;;;;;;2.83;1.35;;;4.90;99.90;;;;;;5091759;28;20071;-47
2021/03/17 04:18:38;;;;;;;1.00;0.90;;;4.90;99.90;;;;;;5085345;28;20031;-46
2021/03/17 04:21:17;;;;;;;1.83;0.90;;;5.00;99.90;;;;;;5075716;28;20503;-46
2021/03/17 04:23:45;;;;;;;0.50;0.50;;;4.90;99.90;;;;;;5090582;28;20031;-46
2021/03/17 04:26:12;;;;;;;1.15;0.80;;;4.90;99.90;;;;;;5095910;28;20029;-47
2021/03/17 04:28:39;;;;;;;1.20;0.77;;;5.00;99.90;;;;;;5095133;28;20032;-47
2021/03/17 04:31:06;;;;;;;0.88;0.88;;;5.00;99.90;;;;;;5082447;28;20039;-46
2021/03/17 04:33:33;;;;;;;1.20;1.10;;;5.00;99.90;;;;;;5075679;28;20487;-46
2021/03/17 04:36:01;;;;;;;1.73;1.20;;;5.00;99.90;;;;;;5075533;28;20020;-46
2021/03/17 04:38:28;;;;;;;1.45;1.08;;;4.90;99.90;;;;;;5075268;28;20028;-46
2021/03/17 04:40:55;;;;;;;1.17;1.08;;;4.90;99.90;;;;;;5074771;28;20107;-47
2021/03/17 04:43:21;;;;;;;2.08;1.45;;;4.90;99.90;;;;;;5073607;28;20032;-47
2021/03/17 04:45:48;;;;;;;1.95;1.50;;;5.00;99.90;;;;;;5075370;28;20028;-46
2021/03/17 04:48:13;;;;;;;1.80;1.17;;;4.90;99.90;;;;;;5075173;28;20035;-46
2021/03/17 04:50:41;;;;;;;2.17;1.45;;;4.90;99.90;;;;;;5075021;28;20028;-46
2021/03/17 04:53:11;;;;;;;1.30;1.17;;;4.90;99.90;;;;;;5074790;28;20031;-51
2021/03/17 04:55:38;;;;;;;0.57;0.57;;;4.80;99.90;;;;;;5073161;28;20395;-46
2021/03/17 04:58:08;;;;;;;1.08;0.88;;;4.80;99.90;;;;;;5074943;28;20020;-46
2021/03/17 05:00:35;;;;;;;1.25;1.08;;;4.90;99.90;;;;;;5056518;28;20548;-46
2021/03/17 05:03:04;;;;;;;1.27;1.02;;;4.90;99.90;;;;;;5074605;28;20055;-46
2021/03/17 05:05:31;;;;;;;1.13;1.00;;;4.90;99.90;;;;;;5087633;28;20020;-46
2021/03/17 05:07:58;;;;;;;1.50;1.20;;;4.90;99.90;;;;;;5094283;28;20028;-46
2021/03/17 05:10:27;;;;;;;1.50;1.27;;;5.00;99.90;;;;;;5093127;28;20399;-46
2021/03/17 05:12:53;;;;;;;1.90;1.42;;;4.90;99.90;;;;;;5080297;28;20025;-46
2021/03/17 05:15:20;;;;;;;2.90;1.70;;;4.80;99.90;;;;;;5090659;28;20024;-47
2021/03/17 05:17:48;;;;;;;1.65;1.40;;;4.90;99.90;;;;;;5087330;28;20446;-47
2021/03/17 05:20:24;;;;;;;2.70;1.10;;;4.90;99.90;;;;;;5074345;28;20032;-47
2021/03/17 05:22:51;;;;;;;1.58;1.48;;;4.90;99.90;;;;;;5079366;28;20061;-47
2021/03/17 05:25:22;;;;;;;1.63;1.27;;;4.90;99.90;;;;;;5095072;28;20031;-47
2021/03/17 05:28:03;;;;;;;1.13;1.00;;;4.80;99.90;;;;;;5094653;28;20382;-47
2021/03/17 05:30:37;;;;;;;3.33;1.83;;;4.80;99.90;;;;;;5092568;28;20032;-47
2021/03/17 05:33:06;;;;;;;2.70;1.52;;;4.90;99.90;;;;;;5081566;28;20553;-47
2021/03/17 05:35:32;;;;;;;3.08;1.77;;;4.90;99.90;;;;;;5074050;28;20031;-46
2021/03/17 05:37:57;;;;;;;0.63;0.52;;;4.90;99.90;;;;;;5074237;28;20052;-46
2021/03/17 05:40:23;;;;;;;2.10;1.67;;;4.80;99.90;;;;;;5061239;28;20067;-46
2021/03/17 05:42:49;;;;;;;1.67;1.23;;;4.80;99.90;;;;;;5069788;28;20032;-46
2021/03/17 05:45:19;;;;;;;1.73;1.40;;;4.80;99.90;;;;;;5057496;28;20028;-46
2021/03/17 05:47:46;;;;;;;2.03;1.60;;;4.90;99.90;;;;;;5055687;28;20123;-46
2021/03/17 05:50:15;;;;;;;2.10;1.58;;;4.80;99.90;;;;;;5079299;28;20131;-47
2021/03/17 05:52:43;;;;;;;1.27;1.08;;;4.90;99.90;;;;;;5094474;28;20055;-46
2021/03/17 05:55:11;;;;;;;1.55;1.45;;;4.80;99.90;;;;;;5094533;28;20123;-46
2021/03/17 05:57:38;;;;;;;2.55;1.33;;;4.70;99.90;;;;;;5072387;28;20472;-46
2021/03/17 06:00:09;;;;;;;1.92;1.40;;;4.80;99.90;;;;;;5073937;28;20028;-46
2021/03/17 06:02:37;;;;;;;2.15;1.50;;;4.80;99.90;;;;;;5085498;28;20040;-46
2021/03/17 06:05:05;;;;;;;1.20;1.10;;;4.90;99.90;;;;;;5082676;28;20035;-46
2021/03/17 06:07:42;;;;;;;1.88;1.35;;;4.90;99.90;;;;;;5072289;28;20119;-47
2021/03/17 06:10:08;;;;;;;2.00;1.50;;;4.90;99.90;;;;;;5073994;28;20047;-47
2021/03/17 06:12:36;;;;;;;1.45;1.20;;;5.00;99.90;;;;;;5072096;28;20041;-46
2021/03/17 06:15:04;;;;;;;2.15;1.20;;;5.10;99.90;;;;;;5073920;28;20024;-46
2021/03/17 06:17:33;;;;;;;1.02;0.95;;;5.00;99.90;;;;;;5071379;28;20033;-47
2021/03/17 06:20:02;;;;;;;2.72;1.70;;;5.00;99.90;;;;;;5074000;28;20021;-47
2021/03/17 06:22:28;;;;;;;1.77;1.45;;;5.10;99.90;;;;;;5073827;28;20032;-46
2021/03/17 06:24:55;;;;;;;1.77;1.42;;;5.10;99.90;;;;;;5054984;28;20093;-46
2021/03/17 06:27:22;;;;;;;1.10;1.00;;;5.00;99.90;;;;;;5073724;28;20036;-47
2021/03/17 06:29:48;;;;;;;2.58;1.30;;;5.10;99.90;;;;;;5073258;28;20029;-47
2021/03/17 06:32:14;;;;;;;1.70;1.40;;;5.10;99.90;;;;;;5073699;28;20027;-47
2021/03/17 06:34:47;;;;;;;2.50;1.67;;;5.10;99.90;;;;;;5074757;28;20020;-55
2021/03/17 06:37:13;;;;;;;1.55;1.25;;;5.20;99.90;;;;;;5089049;28;20090;-46
2021/03/17 06:39:39;;;;;;;1.70;1.60;;;5.10;99.90;;;;;;5073816;28;20024;-47
2021/03/17 06:42:06;;;;;;;3.00;1.70;;;5.10;99.90;;;;;;5071374;28;20032;-47
2021/03/17 06:44:31;;;;;;;1.30;1.05;;;5.20;99.90;;;;;;5038733;28;20064;-47
2021/03/17 06:47:21;;;;;;;2.13;1.40;;;5.30;99.90;;;;;;5088557;28;20439;-47
2021/03/17 06:49:52;;;;;;;2.40;2.20;;;5.40;99.90;;;;;;5073550;28;20052;-46
2021/03/17 06:52:43;;;;;;;2.00;1.27;;;5.30;99.90;;;;;;5073300;28;20040;-49
2021/03/17 06:55:14;;;;;;;0.52;0.47;;;5.30;99.90;;;;;;5088935;28;20085;-48
2021/03/17 06:57:48;;;;;;;3.97;1.53;;;5.10;99.90;;;;;;5058905;28;20047;-43
2021/03/17 07:00:33;;;;;;;2.40;1.30;;;5.20;99.90;;;;;;5094303;28;20051;-48
2021/03/17 07:03:02;;;;;;;4.60;1.60;;;5.20;99.90;;;;;;5091144;28;20032;-50
2021/03/17 07:05:33;;;;;;;2.40;1.20;;;5.30;99.90;;;;;;5093520;28;20020;-47
2021/03/17 07:08:00;;;;;;;1.77;1.50;;;5.30;99.90;;;;;;5093333;28;20021;-49
2021/03/17 07:10:43;;;;;;;3.58;1.80;;;5.30;99.90;;;;;;5093426;28;20024;-49
2021/03/17 07:13:12;;;;;;;1.23;1.13;;;5.50;99.90;;;;;;5094362;28;20032;-47
2021/03/17 07:15:39;;;;;;;1.90;1.55;;;5.60;99.90;;;;;;5093317;28;20024;-46
2021/03/17 07:18:23;;;;;;;1.15;1.08;;;5.60;99.90;;;;;;5108312;28;20430;-48
2021/03/17 07:21:05;;;;;;;2.35;1.50;;;5.50;99.90;;;;;;5093656;28;20113;-46
2021/03/17 07:23:36;;;;;;;1.58;1.30;;;5.70;99.90;;;;;;5058001;28;20040;-48
2021/03/17 07:26:12;;;;;;;3.97;2.08;;;5.80;99.90;;;;;;5096075;28;20032;-49
2021/03/17 07:28:47;;;;;;;1.77;1.63;;;5.80;99.90;;;;;;5096928;28;20055;-48
2021/03/17 07:31:18;;;;;;;5.40;3.38;;;5.80;99.90;;;;;;5096344;28;20023;-50
2021/03/17 07:33:45;;;;;;;10.80;6.60;;;5.90;99.90;;;;;;5096492;28;20121;-50
2021/03/17 07:36:12;;;;;;;27.55;11.80;;;5.80;99.90;;;;;;5096690;28;20089;-45
2021/03/17 07:38:38;;;;;;;19.27;8.20;;;5.80;99.90;;;;;;5096945;28;20099;-49
2021/03/17 07:41:04;;;;;;;23.25;9.80;;;5.90;99.90;;;;;;5097073;28;20035;-49
2021/03/17 07:43:36;;;;;;;3.50;2.22;;;5.80;99.90;;;;;;5094796;28;20043;-45
2021/03/17 07:46:02;;;;;;;14.38;7.40;;;5.80;99.90;;;;;;5096447;28;20034;-49
2021/03/17 07:48:28;;;;;;;6.20;4.13;;;5.90;99.90;;;;;;5095985;28;20028;-50
2021/03/17 07:50:55;;;;;;;21.20;9.88;;;5.70;99.90;;;;;;5094610;28;20047;-48
2021/03/17 07:53:24;;;;;;;6.45;3.35;;;5.70;99.90;;;;;;5111101;28;20028;-49
2021/03/17 07:55:53;;;;;;;5.50;3.10;;;5.80;99.90;;;;;;5096525;28;20475;-47
2021/03/17 07:58:19;;;;;;;1.92;1.30;;;5.90;99.90;;;;;;5076915;28;20033;-49
2021/03/17 08:00:45;;;;;;;3.30;2.55;;;5.80;99.90;;;;;;5095738;28;20028;-49
2021/03/17 08:03:13;;;;;;;1.25;1.15;;;5.80;99.90;;;;;;5093816;28;20105;-47
2021/03/17 08:05:40;;;;;;;2.92;1.65;;;5.60;99.90;;;;;;5095077;28;20036;-49
2021/03/17 08:08:10;;;;;;;2.17;1.65;;;5.80;99.90;;;;;;5096188;28;20063;-50
2021/03/17 08:10:41;;;;;;;2.20;1.40;;;5.60;99.90;;;;;;5096162;28;20035;-47
2021/03/17 08:13:08;;;;;;;3.17;1.65;;;5.60;99.90;;;;;;5110807;28;20035;-50
2021/03/17 08:15:36;;;;;;;2.28;1.75;;;5.70;99.90;;;;;;5095803;28;20113;-48
2021/03/17 08:18:02;;;;;;;0.68;0.68;;;5.70;99.90;;;;;;5096135;28;20024;-47
2021/03/17 08:20:28;;;;;;;2.78;2.25;;;5.40;99.90;;;;;;5096163;28;20494;-46
2021/03/17 08:22:57;;;;;;;3.53;2.30;;;5.60;99.90;;;;;;5095930;28;20024;-49
2021/03/17 08:25:46;;;;;;;2.67;1.90;;;5.80;99.90;;;;;;5095699;28;20028;-49
2021/03/17 08:28:23;;;;;;;2.80;2.20;;;5.70;99.90;;;;;;5109775;28;20047;-50
2021/03/17 08:30:51;;;;;;;2.80;2.13;;;5.90;99.90;;;;;;5094950;28;20051;-50
2021/03/17 08:33:37;;;;;;;3.38;2.38;;;5.90;99.90;;;;;;5094847;28;20019;-49
2021/03/17 08:36:11;;;;;;;3.13;2.28;;;6.00;99.90;;;;;;5093455;28;20027;-50
2021/03/17 08:38:54;;;;;;;3.53;2.90;;;6.20;99.90;;;;;;5090716;28;20036;-47
2021/03/17 08:41:38;;;;;;;;;;;6.30;99.90;;;;;;5057095;28;20559;-48
2021/03/17 08:44:46;;;;;;;4.40;1.67;;;6.20;99.90;;;;;;5091971;28;20278;-48
2021/03/17 08:47:21;;;;;;;2.38;1.77;;;6.50;99.90;;;;;;5051546;28;20513;-72
2021/03/17 08:49:51;;;;;;;2.10;1.85;;;6.40;99.90;;;;;;5055334;28;20041;-47
2021/03/17 08:52:21;;;;;;;3.17;2.00;;;6.50;99.90;;;;;;5032201;28;20053;-50
2021/03/17 08:54:58;;;;;;;2.40;1.63;;;6.60;99.90;;;;;;5051395;28;20059;-50
2021/03/17 08:57:24;;;;;;;3.33;2.17;;;6.70;99.90;;;;;;5017842;28;20048;-48
2021/03/17 08:59:52;;;;;;;0.82;0.82;;;6.80;99.90;;;;;;5017553;28;20041;-50
2021/03/17 09:02:25;;;;;;;2.20;1.52;;;6.70;99.90;;;;;;5051243;28;20143;-47
2021/03/17 09:04:52;;;;;;;2.80;2.20;;;;;;;;;;5051457;28;20033;-49
2021/03/17 09:07:19;;;;;;;1.77;1.63;;;7.30;99.90;;;;;;5050862;28;20483;-48
2021/03/17 09:09:54;;;;;;;3.60;1.45;;;7.20;99.90;;;;;;5050818;28;20037;-49
2021/03/17 09:12:43;;;;;;;3.03;2.05;;;7.00;99.90;;;;;;5049446;28;20041;-49
2021/03/17 09:15:14;;;;;;;3.88;2.67;;;7.00;99.90;;;;;;5051256;28;20029;-50
2021/03/17 09:17:46;;;;;;;4.90;3.42;;;7.30;99.90;;;;;;5051282;28;20033;-46
2021/03/17 09:20:22;;;;;;;1.95;1.40;;;7.30;99.90;;;;;;5051079;28;20029;-46
2021/03/17 09:23:00;;;;;;;6.60;3.20;;;7.10;99.90;;;;;;5050615;28;20029;-49
2021/03/17 09:25:28;;;;;;;2.95;1.95;;;;;;;;;;5072975;28;20040;-50
2021/03/17 09:27:56;;;;;;;2.42;2.20;;;7.40;99.90;;;;;;5078083;28;20115;-48
2021/03/17 09:30:25;;;;;;;4.05;2.55;;;7.60;99.90;;;;;;5092980;28;20467;-46
2021/03/17 09:33:06;;;;;;;3.08;2.03;;;7.60;99.90;;;;;;5072302;28;20060;-48
2021/03/17 09:35:32;;;;;;;2.85;1.38;;;7.80;99.90;;;;;;5091332;28;20023;-46
2021/03/17 09:38:10;;;;;;;2.33;2.13;;;7.90;99.90;;;;;;5092362;28;20052;-50
2021/03/17 09:41:11;;;;;;;3.58;1.88;;;7.90;99.90;;;;;;5070971;28;20191;-50
2021/03/17 09:43:55;;;;;;;3.92;2.47;;;8.20;99.90;;;;;;5072583;28;20024;-48
2021/03/17 09:46:41;;;;;;;4.47;2.70;;;8.70;99.90;;;;;;5073104;28;20032;-48
2021/03/17 09:49:18;;;;;;;3.13;2.40;;;8.30;99.90;;;;;;5072093;28;20040;-47
2021/03/17 09:51:58;;;;;;;5.43;3.05;;;;;;;;;;5070374;28;20059;-48
2021/03/17 09:54:27;;;;;;;1.13;0.90;;;8.40;99.90;;;;;;5070915;28;20036;-48
2021/03/17 09:56:58;;;;;;;2.70;1.73;;;8.50;99.90;;;;;;5070409;28;20524;-49
2021/03/17 09:59:36;;;;;;;5.85;2.55;;;8.20;99.90;;;;;;5036712;28;20041;-48
2021/03/17 10:02:04;;;;;;;2.95;2.20;;;8.70;99.90;;;;;;5070711;28;20124;-46
2021/03/17 10:04:35;;;;;;;7.53;4.10;;;8.50;99.90;;;;;;5071319;28;20571;-48
2021/03/17 10:07:02;;;;;;;2.20;1.90;;;;;;;;;;5035894;28;20044;-50
2021/03/17 10:09:33;;;;;;;2.00;1.77;;;;;;;;;;5079267;28;20042;-50
2021/03/17 10:12:02;;;;;;;5.20;2.78;;;;;;;;;;5089958;28;20040;-49
2021/03/17 10:14:29;;;;;;;7.95;4.32;;;8.50;99.90;;;;;;5090236;28;20123;-48
2021/03/17 10:16:55;;;;;;;5.07;2.58;;;8.70;99.90;;;;;;5090175;28;20078;-50
2021/03/17 10:19:21;;;;;;;2.20;1.48;;;8.50;99.90;;;;;;5090333;28;20453;-50
2021/03/17 10:21:52;;;;;;;4.28;2.03;;;8.10;99.90;;;;;;5056737;28;20044;-47
2021/03/17 10:24:33;;;;;;;5.00;2.63;;;8.10;99.90;;;;;;5092419;28;20056;-51
2021/03/17 10:27:01;;;;;;;5.05;4.15;;;8.30;99.90;;;;;;5092421;28;20384;-50
2021/03/17 10:29:27;;;;;;;2.60;2.05;;;8.40;99.90;;;;;;5107153;28;20086;-47
2021/03/17 10:31:55;;;;;;;3.08;2.35;;;8.40;99.90;;;;;;5092499;28;20036;-48
2021/03/17 10:34:25;;;;;;;4.15;2.47;;;8.50;99.90;;;;;;5092605;28;20032;-49
2021/03/17 10:36:53;;;;;;;8.40;4.70;;;9.10;99.90;;;;;;5092248;28;20032;-47
2021/03/17 10:39:29;;;;;;;4.35;3.33;;;9.50;99.90;;;;;;5092126;28;20089;-46
2021/03/17 10:41:55;;;;;;;4.15;2.42;;;;;;;;;;5092222;28;20035;-49
2021/03/17 10:44:24;;;;;;;6.85;3.65;;;10.40;99.90;;;;;;5092189;28;20111;-47
2021/03/17 10:47:10;;;;;;;5.18;3.13;;;9.90;99.90;;;;;;5092329;28;20552;-53
2021/03/17 10:49:43;;;;;;;3.58;1.70;;;9.60;99.90;;;;;;5091955;28;20032;-51
2021/03/17 10:52:09;;;;;;;5.95;2.67;;;;;;;;;;5089057;28;20048;-50
2021/03/17 10:54:40;;;;;;;3.42;2.55;;;;;;;;;;5106562;28;20059;-51
2021/03/17 10:57:06;;;;;;;6.35;3.33;;;8.70;99.90;;;;;;5106573;28;20032;-47
2021/03/17 10:59:34;;;;;;;6.22;3.55;;;8.30;99.90;;;;;;5092165;28;20027;-49
2021/03/17 11:02:20;;;;;;;6.43;3.35;;;8.30;99.90;;;;;;5095969;28;20124;-50
2021/03/17 11:05:26;;;;;;;3.95;2.50;;;8.40;99.90;;;;;;5111126;28;20123;-51
2021/03/17 11:08:10;;;;;;;4.95;3.80;;;8.40;99.90;;;;;;5053651;28;20416;-46
2021/03/17 11:10:47;;;;;;;4.85;3.25;;;8.50;99.90;;;;;;5053402;28;20040;-47
2021/03/17 11:13:15;;;;;;;6.18;3.38;;;8.60;99.90;;;;;;5053038;28;20484;-42
2021/03/17 11:15:45;;;;;;;8.75;4.75;;;8.70;99.90;;;;;;5052859;28;20454;-47
2021/03/17 11:18:21;;;;;;;5.70;3.63;;;8.70;99.90;;;;;;5053044;28;20132;-47
2021/03/17 11:20:48;;;;;;;12.00;5.45;;;8.70;99.90;;;;;;5053068;28;20033;-48
2021/03/17 11:23:18;;;;;;;4.28;3.03;;;;;;;;;;5019823;28;20087;-43
2021/03/17 11:25:44;;;;;;;29.63;4.57;;;;;;;;;;5053033;28;20080;-46
2021/03/17 11:28:14;;;;;;;3.88;2.92;;;8.90;99.90;;;;;;5052975;28;20033;-44
2021/03/17 11:30:45;;;;;;;5.32;3.42;;;;;;;;;;5019456;28;20095;-44
2021/03/17 11:33:13;;;;;;;5.50;3.70;;;9.70;99.90;;;;;;5052672;28;20045;-48
2021/03/17 11:35:40;;;;;;;5.85;3.17;;;9.80;99.90;;;;;;4976884;28;20066;-45
2021/03/17 11:38:05;;;;;;;7.97;4.32;;;9.80;99.90;;;;;;5004158;28;20033;-45
2021/03/17 11:40:32;;;;;;;5.05;3.40;;;9.90;99.90;;;;;;5018767;28;20564;-46
2021/03/17 11:43:08;;;;;;;4.75;2.58;;;9.80;99.90;;;;;;5032466;28;20124;-46
2021/03/17 11:45:34;;;;;;;4.28;2.63;;;;;;;;;;5032649;28;20108;-47
2021/03/17 11:48:01;;;;;;;6.13;4.05;;;10.10;99.90;;;;;;5032432;28;20037;-47
2021/03/17 11:50:27;;;;;;;4.88;3.42;;;;;;;;;;5027098;28;20037;-47
2021/03/17 11:52:53;;;;;;;2.80;2.55;;;;;;;;;;5032058;28;20045;-47
2021/03/17 11:55:21;;;;;;;5.63;3.08;;;11.30;99.90;;;;;;5032098;28;20056;-47
2021/03/17 11:57:47;;;;;;;4.00;2.65;;;11.40;99.90;;;;;;5029678;28;20041;-47
2021/03/17 12:00:14;;;;;;;4.05;3.05;;;11.00;99.90;;;;;;5032318;28;20034;-47
2021/03/17 12:02:41;;;;;;;4.53;2.90;;;;;;;;;;5012221;28;20477;-47
2021/03/17 12:05:07;;;;;;;6.28;3.80;;;;;;;;;;5012531;28;20426;-47
2021/03/17 12:07:34;;;;;;;7.03;4.07;;;;;;;;;;4995823;28;20077;-47
2021/03/17 12:10:00;;;;;;;3.28;2.05;;;;;;;;;;5012225;28;20049;-47
2021/03/17 12:12:26;;;;;;;5.10;2.88;;;11.50;99.90;;;;;;5035133;28;20093;-47
2021/03/17 12:14:53;;;;;;;3.85;2.67;;;11.20;99.90;;;;;;5051753;28;20128;-47
2021/03/17 12:17:18;;;;;;;3.85;2.58;;;10.80;99.90;;;;;;5051865;28;20373;-47
2021/03/17 12:19:44;;;;;;;8.60;4.72;;;10.80;99.90;;;;;;5052916;28;20036;-46
2021/03/17 12:22:10;;;;;;;2.03;1.73;;;11.00;99.90;;;;;;5036408;28;20044;-47
2021/03/17 12:24:40;;;;;;;1.70;1.60;;;11.00;99.90;;;;;;5033315;28;20029;-47
2021/03/17 12:27:06;;;;;;;4.05;2.60;;;10.90;99.90;;;;;;5033289;28;20049;-46
2021/03/17 12:29:31;;;;;;;5.82;3.30;;;11.20;99.90;;;;;;5031408;28;20045;-47
2021/03/17 12:32:00;;;;;;;3.65;2.65;;;11.30;99.90;;;;;;5031454;28;20037;-47
2021/03/17 12:34:28;;;;;;;5.15;3.28;;;10.90;99.90;;;;;;5029123;28;20116;-47
2021/03/17 12:36:55;;;;;;;6.47;3.45;;;11.30;99.90;;;;;;5031577;28;20037;-47
2021/03/17 12:39:21;;;;;;;5.18;3.05;;;10.80;99.90;;;;;;5034826;28;20050;-47
2021/03/17 12:42:08;;;;;;;4.68;3.10;;;10.70;99.90;;;;;;4991730;28;20050;-46
2021/03/17 12:44:35;;;;;;;7.15;4.40;;;11.00;99.90;;;;;;4991986;28;20039;-47
2021/03/17 12:47:02;;;;;;;6.43;4.38;;;11.10;99.90;;;;;;4992025;28;20042;-46
2021/03/17 12:49:29;;;;;;;6.32;3.65;;;11.40;99.90;;;;;;4991901;28;20105;-46
2021/03/17 12:51:55;;;;;;;4.25;2.60;;;12.00;99.90;;;;;;4991718;28;20050;-46
2021/03/17 12:54:21;;;;;;;4.35;3.40;;;11.70;99.90;;;;;;4975486;28;20124;-46
2021/03/17 12:56:47;;;;;;;3.70;3.03;;;11.20;99.90;;;;;;5011048;28;20477;-46
2021/03/17 12:59:13;;;;;;;4.85;3.42;;;11.00;99.90;;;;;;4995209;28;20069;-47
2021/03/17 13:01:40;;;;;;;4.22;2.10;;;11.10;99.90;;;;;;4952627;29;20159;-46
2021/03/17 13:04:07;;;;;;;2.70;2.00;;;10.90;99.90;;;;;;4934954;29;20043;-50
2021/03/17 13:18:18;;;;;;;4.43;3.20;;;9.80;99.90;;;;;;5110124;27;20137;-50
2021/03/17 13:20:44;;;;;;;5.22;3.25;;;;;;;;;;5053915;28;20042;-53
2021/03/17 13:23:10;;;;;;;6.18;3.60;;;;;;;;;;5089736;28;20028;-49
2021/03/17 13:25:36;;;;;;;4.20;2.80;;;9.60;99.90;;;;;;5053935;28;20036;-50
2021/03/17 13:28:05;;;;;;;2.10;1.67;;;9.60;99.90;;;;;;5089640;28;20024;-57
2021/03/17 13:30:32;;;;;;;3.83;2.80;;;9.40;99.90;;;;;;5089409;28;20040;-52
2021/03/17 13:32:58;;;;;;;5.97;3.13;;;9.60;99.90;;;;;;5088630;28;20028;-49